Pagina principale
METAR-TAF:

METAR-TAF

Aeroporti :

Aeroporto di Graz

Graz, Austria

latitudine: 47-00N, longitudine: 015-26E, altezza: 340 m

Osservazione

Il bollettino è stato emesso 26 minuti fa, alle 18:20 UTC
Vento 2 kt da sud/sud-est
Temperature -1°C
Umidità 74%
Pressione 1017 hPa
Visibilità 10 km o più
Nuvoloso ad un'altezza di 2800 ft
Nuvoloso ad un'altezza di 4800 ft

METAR: LOWG 191820Z 16002KT 9999 BKN028 BKN048 M01/M05 Q1017 R17/19//95 NOSIG

Ora: 19:46 (18:46 UTC)

Previsione

Il bollettino è stato emesso 1 ora e 31 minuti fa, alle 17:15 UTC
Previsione valida dal 19 alle 18 UTC al 20 alle 18 UTC
Vento 2 kt da direzioni variabili
Visibilità 10 km o più
Nubi sparse ad un'altezza di 2500 ft
Nuvoloso ad un'altezza di 4500 ft
Evoluzione graduale
dal 20 alle 08 UTC al 20 alle 11 UTC
Poco nuvoloso ad un'altezza di 4000 ft
Nubi sparse ad un'altezza di 6000 ft

TAF: LOWG 191715Z 1918/2018 VRB02KT 9999 SCT025 BKN045 TX00/2013Z TNM05/2007Z BECMG 2008/2011 FEW040 SCT060

Osservazioni e previsioni meteorologiche di più di 4000 aeroporti (messaggi METAR e TAF).

Le stazioni disponibili sono rappresentate dai dischi gialli e rossi sulla carta.

Puntare il mouse per vedere il nome della stazione.

Clicca sopra per visualizzare le osservazioni e previsioni meteorologiche.

Per cambiare la mappa : fare clic sui pulsanti verdi con una croce nera per ingrandire, il pulsante verde con un trattino per diminuire, o sulla freccia verde per le mappe adiacenti.


METAR-TAF: